Date,TemperatureHighF,TemperatureAvgF,TemperatureLowF,DewpointHighF,DewpointAvgF,DewpointLowF,HumidityHigh,HumidityAvg,HumidityLow,PressureMaxIn,PressureMinIn,WindSpeedMaxMPH,WindSpeedAvgMPH,GustSpeedMaxMPH,PrecipitationSumIn
2012-6-13,79.0,73.7,71.0,70.0,69.2,68.0,95,87,70,0.00,40.00,6,2,12,0.02
2012-6-14,93.0,80.2,69.0,72.0,68.8,65.0,95,72,41,0.00,40.00,6,3,17,0.35
2012-6-15,86.0,74.9,69.0,73.0,69.3,67.0,95,84,58,0.00,40.00,8,3,24,0.72
2012-6-16,86.0,75.9,67.0,72.0,63.6,-99.9,96,74,38,0.00,40.00,8,4,16,0.04
2012-6-17,86.0,76.7,65.0,71.0,68.0,64.0,96,76,59,0.00,40.00,10,5,20,0.00
2012-6-18,86.0,79.9,71.0,71.0,68.7,66.0,93,70,52,0.00,40.00,10,5,20,0.00
2012-6-19,86.0,79.3,67.0,72.0,68.5,64.0,95,71,48,0.00,40.00,9,4,18,0.00
2012-6-20,86.0,79.7,67.0,73.0,68.2,64.0,96,70,51,0.00,40.00,9,5,18,0.06
2012-6-21,91.0,79.1,67.0,72.0,67.1,63.0,96,71,39,0.00,40.00,7,2,15,0.01
2012-6-22,90.0,81.1,71.0,75.0,71.5,69.0,94,75,50,0.00,40.00,7,3,16,0.00
2012-6-23,91.0,80.3,71.0,76.0,72.5,70.0,96,79,54,0.00,40.00,8,4,18,0.00
2012-6-24,91.0,81.6,73.0,72.0,69.7,67.0,92,70,49,0.00,40.00,9,5,27,0.00
2012-6-25,96.0,84.3,74.0,72.0,67.0,64.0,81,59,35,0.00,40.00,12,6,31,0.00
2012-6-26,97.0,84.8,71.0,77.0,70.7,68.0,94,66,40,0.00,40.00,6,3,16,0.00
2012-6-27,86.0,80.0,70.0,75.0,70.0,64.0,95,74,50,0.00,40.00,9,4,18,0.00
2012-6-28,91.0,79.3,67.0,74.0,66.2,61.0,95,69,37,0.00,40.00,9,3,14,0.00
2012-6-29,94.0,82.2,69.0,77.0,72.9,67.0,94,75,57,0.00,40.00,6,3,13,0.00
2012-6-30,92.0,83.1,71.0,76.0,71.5,69.0,96,71,49,0.00,40.00,7,3,13,0.00
2012-7-1,95.0,82.4,68.0,77.0,72.0,67.0,96,74,44,0.00,40.00,7,3,13,0.00
2012-7-2,95.0,81.2,72.0,77.0,72.8,69.0,95,78,46,0.00,40.00,8,2,19,0.43
2012-7-3,93.0,77.9,70.0,75.0,71.3,67.0,96,82,52,0.00,40.00,7,2,21,0.90
2012-7-4,92.0,76.2,70.0,78.0,72.1,69.0,96,89,52,0.00,40.00,7,2,27,2.85
2012-7-5,93.0,82.7,71.0,76.0,73.4,70.0,96,75,52,0.00,40.00,6,2,13,0.01
2012-7-6,91.0,80.7,75.0,75.0,72.6,71.0,95,78,55,0.00,40.00,11,3,22,0.00
2012-7-7,88.0,79.7,74.0,75.0,73.3,71.0,95,81,61,0.00,40.00,6,2,15,0.41
2012-7-8,89.0,81.5,73.0,76.0,72.8,69.0,95,76,55,0.00,40.00,6,2,15,0.03
2012-7-9,86.0,78.3,73.0,76.0,73.3,71.0,96,85,69,0.00,40.00,8,2,15,0.14
2012-7-10,84.0,75.6,72.0,75.0,72.4,70.0,96,90,72,0.00,40.00,7,2,14,0.47
2012-7-11,88.0,79.1,72.0,77.0,72.9,70.0,96,83,60,0.00,40.00,7,3,18,0.15
2012-7-12,89.0,79.7,70.0,79.0,72.0,69.0,96,79,58,0.00,40.00,7,3,14,0.15
2012-7-13,90.0,79.8,69.0,74.0,70.8,68.0,96,76,53,0.00,40.00,7,3,13,0.00
2012-7-14,81.0,76.2,72.0,76.0,73.1,70.0,96,91,79,0.00,40.00,5,2,12,1.97
2012-7-15,88.0,82.9,75.0,76.0,74.5,73.0,95,77,63,0.00,40.00,10,5,20,0.19
2012-7-16,91.0,82.4,72.0,77.0,72.9,71.0,96,76,53,0.00,40.00,7,3,13,0.01
2012-7-17,94.0,82.0,72.0,77.0,72.8,70.0,96,76,47,0.00,40.00,7,3,15,0.63
2012-7-18,92.0,76.6,72.0,76.0,71.9,69.0,96,87,53,0.00,40.00,8,3,18,1.29
2012-7-19,86.0,74.6,71.0,77.0,72.4,69.0,96,93,73,0.00,40.00,8,2,26,4.25
2012-7-20,86.0,76.7,71.0,76.0,72.9,70.0,96,89,70,0.00,40.00,6,2,14,2.72
2012-7-21,83.0,75.9,72.0,76.0,73.2,71.0,96,92,74,0.00,40.00,5,2,12,1.84
2012-7-22,89.0,82.6,76.0,78.0,75.5,74.0,95,80,65,0.00,40.00,9,4,16,0.08
2012-7-23,92.0,83.1,73.0,79.0,74.4,71.0,96,77,51,0.00,40.00,5,3,11,0.00
2012-7-24,94.0,81.6,74.0,78.0,74.1,71.0,96,81,52,0.00,40.00,6,2,21,0.35
2012-7-25,95.0,84.6,75.0,77.0,74.7,72.0,96,74,51,0.00,40.00,6,3,13,0.35
2012-7-26,92.0,81.2,74.0,80.0,74.4,71.0,96,82,50,0.00,40.00,5,2,18,0.93
2012-7-27,92.0,81.9,73.0,78.0,74.2,72.0,96,79,57,0.00,40.00,9,3,18,0.93
2012-7-28,89.0,80.8,75.0,76.0,74.2,72.0,95,81,59,0.00,40.00,8,2,13,0.00
2012-7-29,93.0,82.8,73.0,77.0,74.5,72.0,96,78,53,0.00,40.00,6,2,12,0.00
2012-7-30,97.0,84.5,78.0,79.0,76.0,71.0,94,77,48,0.00,40.00,10,3,25,0.00
2012-7-31,88.0,82.9,78.0,79.0,77.0,75.0,94,83,68,0.00,40.00,6,3,14,0.00
2012-8-1,92.0,84.8,77.0,78.0,77.1,75.0,94,79,59,0.00,40.00,8,4,16,0.01
2012-8-2,93.0,80.2,72.0,76.0,73.2,69.0,96,82,54,0.00,40.00,7,2,21,1.86
2012-8-3,93.0,83.3,74.0,78.0,74.6,71.0,96,78,49,0.00,40.00,6,2,14,0.15
2012-8-4,91.0,81.5,73.0,77.0,73.8,71.0,94,79,54,0.00,40.00,6,3,14,0.84
2012-8-5,91.0,82.6,75.0,77.0,74.1,71.0,96,78,53,0.00,40.00,6,3,12,0.05
2012-8-6,92.0,79.3,74.0,76.0,74.4,72.0,96,87,57,0.00,40.00,6,2,15,0.88
2012-8-7,90.0,81.3,72.0,77.0,74.2,71.0,96,81,58,0.00,40.00,5,2,10,0.03
2012-8-8,90.0,81.0,74.0,78.0,75.1,73.0,96,84,62,0.00,40.00,5,2,10,0.04
2012-8-9,85.0,77.8,72.0,77.0,73.6,70.0,96,88,70,0.00,40.00,7,3,18,0.45
2012-8-10,90.0,80.5,70.0,78.0,73.9,69.0,96,81,62,0.00,40.00,8,3,18,0.11
2012-8-11,87.0,79.0,73.0,76.0,72.3,-99.9,95,84,68,0.00,40.00,9,3,19,1.76
2012-8-12,92.0,80.7,70.0,74.0,70.0,66.0,96,74,45,0.00,40.00,7,2,12,0.01
2012-8-13,91.0,80.9,71.0,78.0,73.5,70.0,96,80,58,0.00,40.00,7,2,17,0.00
2012-8-14,92.0,83.6,76.0,79.0,74.8,65.0,90,76,58,0.00,40.00,7,4,18,0.00
2012-8-15,94.0,81.2,74.0,78.0,75.0,70.0,100,83,59,0.00,40.00,7,2,16,1.05
2012-8-16,94.0,80.6,73.0,79.0,75.1,72.0,100,86,55,0.00,40.00,7,3,17,0.11
2012-8-17,88.0,78.3,71.0,79.0,74.0,71.0,100,88,62,0.00,40.00,7,2,25,0.16
2012-8-18,90.0,78.3,73.0,77.0,74.7,73.0,100,90,64,0.00,40.00,7,2,28,0.56
2012-8-19,82.0,75.7,74.0,76.0,74.3,73.0,100,96,79,0.00,40.00,4,2,10,0.36
2012-8-20,85.0,76.1,71.0,74.0,72.7,71.0,100,90,64,0.00,40.00,5,2,9,0.35
2012-8-21,89.0,78.2,70.0,73.0,71.5,70.0,100,82,56,0.00,40.00,6,3,142,0.01
2012-8-22,90.0,79.1,71.0,74.0,68.9,63.0,99,75,41,0.00,40.00,5,2,142,0.01
2012-8-23,92.0,78.7,66.0,73.0,68.1,61.0,100,75,39,0.00,40.00,6,2,13,0.00
2012-8-24,90.0,78.1,68.0,76.0,71.6,68.0,100,83,52,0.00,40.00,7,2,15,0.00
2012-8-25,89.0,79.4,71.0,75.0,72.0,69.0,100,81,54,0.00,40.00,9,3,174,0.00
2012-8-26,92.0,80.1,69.0,73.0,70.1,66.0,100,76,43,0.00,40.00,6,2,12,0.00
2012-8-27,91.0,80.7,67.0,71.0,67.5,64.0,100,67,43,0.00,40.00,8,5,22,0.00
2012-8-28,87.0,79.2,76.0,78.0,74.5,71.0,98,87,66,0.00,40.00,15,9,34,1.49
2012-8-29,80.0,78.3,75.0,78.0,76.2,74.0,99,94,86,0.00,40.00,17,15,41,8.68
2012-8-30,84.0,78.3,74.0,79.0,76.6,73.0,100,94,84,0.00,40.00,16,10,45,11.08
2012-8-31,86.0,81.5,79.0,79.0,76.8,74.0,93,86,69,0.00,40.00,10,6,22,0.06
2012-9-1,88.0,81.8,75.0,79.0,76.8,75.0,100,86,67,0.00,40.00,6,3,11,0.06
2012-9-2,91.0,82.8,77.0,79.0,76.9,75.0,99,84,59,0.00,40.00,6,3,13,0.00
2012-9-3,91.0,84.2,79.0,79.0,77.1,75.0,95,80,61,0.00,40.00,6,4,13,0.00
2012-9-4,89.0,82.4,73.0,80.0,75.6,71.0,99,81,64,0.00,40.00,8,4,26,0.38
2012-9-5,90.0,79.8,73.0,77.0,74.9,73.0,100,87,61,0.00,40.00,7,4,16,2.85
2012-9-6,89.0,80.7,74.0,77.0,75.1,74.0,100,84,63,0.00,40.00,8,4,14,0.01
2012-9-7,89.0,81.3,73.0,78.0,74.7,73.0,100,82,62,0.00,40.00,8,4,17,0.00
2012-9-8,94.0,81.3,74.0,77.0,74.3,71.0,99,82,50,0.00,40.00,6,3,17,0.13
2012-9-9,85.0,75.6,63.0,71.0,62.9,57.0,98,68,40,0.00,40.00,7,5,16,0.01
2012-9-10,87.0,75.0,59.0,65.0,59.4,56.0,100,64,35,0.00,40.00,5,3,106,0.00
2012-9-11,88.0,76.1,61.0,69.0,65.1,61.0,100,72,45,0.00,40.00,9,4,48,0.00
2012-9-12,86.0,75.7,68.0,72.0,69.3,66.0,99,82,56,0.00,40.00,9,3,18,0.00
2012-9-13,87.0,76.1,67.0,73.0,69.8,66.0,99,83,61,0.00,40.00,9,4,17,0.00
2012-9-14,89.0,76.4,65.0,71.0,67.4,64.0,100,77,45,0.00,40.00,6,3,76,0.00
2012-9-15,88.0,76.6,67.0,75.0,69.6,66.0,99,81,56,0.00,40.00,7,3,14,0.00
2012-9-16,87.0,77.6,70.0,75.0,72.6,70.0,100,86,62,0.00,40.00,9,3,17,0.00
2012-9-17,81.0,76.3,72.0,77.0,74.0,70.0,99,93,83,0.00,40.00,8,4,27,2.10
2012-9-18,83.0,76.5,69.0,75.0,69.7,65.0,97,81,56,0.00,40.00,9,5,21,0.40
2012-9-19,84.0,72.1,62.0,68.0,63.0,60.0,98,76,47,0.00,40.00,5,3,11,0.01
2012-9-20,86.0,71.4,58.0,67.0,61.3,56.0,99,74,46,0.00,40.00,6,2,11,0.00
2012-9-21,88.0,74.5,62.0,70.0,65.6,62.0,100,78,46,0.00,40.00,6,2,12,0.00
2012-9-22,90.0,75.4,64.0,73.0,66.9,-99.9,100,81,50,0.00,40.00,5,2,11,0.00
2012-9-23,92.0,76.7,65.0,70.0,66.9,63.0,100,76,39,0.00,40.00,5,2,13,0.00
2012-9-24,87.0,74.3,65.0,68.0,64.6,60.0,100,76,45,0.00,40.00,6,2,13,0.00
2012-9-25,86.0,69.5,57.0,63.0,60.4,57.0,100,77,42,0.00,40.00,6,2,13,0.00
2012-9-26,86.0,73.4,60.0,73.0,66.5,59.0,100,81,56,0.00,40.00,9,3,15,0.00
2012-9-27,87.0,75.3,65.0,74.0,68.9,65.0,100,83,58,0.00,40.00,7,2,12,0.00
2012-9-28,86.0,74.9,64.0,76.0,71.0,64.0,99,89,62,0.00,40.00,4,1,10,0.07
2012-9-29,83.0,74.1,71.0,75.0,72.7,71.0,100,95,76,0.00,40.00,5,1,10,1.49
2012-9-30,82.0,75.2,71.0,77.0,73.3,71.0,100,94,78,0.00,40.00,9,5,24,2.93
2012-10-1,79.0,72.3,65.0,75.0,66.2,61.0,98,82,65,0.00,40.00,9,6,23,0.82
2012-10-2,80.0,69.2,61.0,63.0,60.0,56.0,99,76,44,0.00,40.00,6,3,14,0.00
2012-10-3,82.0,69.2,59.0,66.0,62.4,59.0,100,82,50,0.00,40.00,7,2,14,0.00
2012-10-4,89.0,73.2,61.0,70.0,64.2,61.0,100,78,41,0.00,40.00,5,2,11,0.00
2012-10-5,86.0,72.5,61.0,71.0,66.0,61.0,100,83,48,0.00,40.00,6,2,12,0.00
2012-10-6,89.0,74.7,62.0,70.0,65.1,62.0,100,76,41,0.00,40.00,5,2,12,0.00
2012-10-7,76.0,66.0,58.0,66.0,58.6,51.0,95,78,58,0.00,40.00,9,6,18,0.00
2012-10-8,76.0,62.4,53.0,55.0,51.6,48.0,88,70,48,0.00,40.00,8,5,15,0.00
2012-10-9,81.0,63.4,50.0,62.0,54.8,49.0,99,76,43,0.00,40.00,6,2,12,0.00
2012-10-10,85.0,69.2,55.0,67.0,61.1,55.0,100,79,47,0.00,40.00,5,2,12,0.00
2012-10-11,84.0,69.5,58.0,66.0,61.9,58.0,99,80,49,0.00,40.00,6,2,12,0.00
2012-10-12,85.0,68.9,56.0,68.0,60.9,56.0,99,80,39,0.00,40.00,6,2,13,0.00
2012-10-13,84.0,71.2,56.0,72.0,64.7,56.0,99,82,58,0.00,40.00,9,4,17,0.00
2012-10-14,89.0,78.1,66.0,72.0,68.1,63.0,98,73,45,0.00,40.00,6,4,14,0.00
2012-10-15,85.0,73.4,57.0,71.0,64.2,56.0,99,77,41,0.00,40.00,8,3,13,0.00
2012-10-16,80.0,63.7,49.0,58.0,52.1,42.0,99,73,27,0.00,40.00,5,2,12,0.00
2012-10-17,80.0,69.5,56.0,67.0,60.7,55.0,96,76,54,0.00,40.00,8,4,19,0.00
2012-10-18,82.0,72.1,53.0,73.0,65.2,52.0,98,82,37,0.00,40.00,6,3,17,0.25
2012-10-19,81.0,61.8,46.0,53.0,43.8,30.0,99,65,16,0.00,40.00,8,2,17,0.02
2012-10-20,81.0,59.8,42.0,54.0,45.2,36.0,99,70,20,0.00,40.00,7,2,12,0.00
2012-10-21,83.0,62.4,46.0,59.0,51.0,45.0,99,74,27,0.00,40.00,5,2,10,0.00
2012-10-22,82.0,64.0,49.0,64.0,56.0,49.0,99,80,43,0.00,40.00,8,3,15,0.00
2012-10-23,83.0,67.3,54.0,67.0,61.5,54.0,99,84,57,0.00,40.00,8,3,16,0.00
2012-10-24,86.0,68.8,56.0,67.0,62.3,56.0,99,83,52,0.00,40.00,8,2,14,0.00
2012-10-25,84.0,68.2,55.0,69.0,62.8,55.0,99,85,55,0.00,40.00,7,2,15,0.00
2012-10-26,86.0,70.4,58.0,65.0,60.9,58.0,99,76,41,0.00,40.00,7,2,14,0.00
2012-10-27,68.0,56.6,49.0,63.0,50.4,45.0,88,80,67,0.00,40.00,13,9,22,0.00
2012-10-28,65.0,54.0,45.0,45.0,40.5,37.0,89,64,36,0.00,40.00,12,7,25,0.00
2012-10-29,63.0,51.2,40.0,38.0,34.0,28.0,86,56,26,0.00,40.00,12,7,24,0.00
2012-10-30,69.0,51.3,35.0,42.0,34.6,29.0,95,58,27,0.00,40.00,9,4,17,0.00
2012-10-31,75.0,57.5,39.0,61.0,50.0,38.0,98,80,46,0.00,40.00,7,2,14,0.00
2012-11-1,78.0,64.5,48.0,60.0,52.2,41.0,98,70,29,0.00,40.00,5,3,11,0.00
2012-11-2,80.0,62.3,46.0,67.0,57.9,45.0,99,88,60,0.00,40.00,6,2,11,0.00
2012-11-3,84.0,68.8,54.0,67.0,62.6,54.0,99,84,49,0.00,40.00,7,2,12,0.00
2012-11-4,80.0,65.9,54.0,67.0,62.0,54.0,99,89,54,0.00,40.00,9,2,19,0.02
2012-11-5,72.0,58.5,47.0,57.0,50.9,42.0,99,81,36,0.00,40.00,10,2,20,0.08
2012-11-6,65.0,54.0,41.0,56.0,47.9,40.0,98,82,55,0.00,40.00,10,5,20,0.12
2012-11-7,68.0,51.1,37.0,49.0,40.4,35.0,99,73,30,0.00,40.00,11,3,20,0.00
2012-11-8,67.0,48.1,35.0,47.0,39.7,34.0,98,78,34,0.00,40.00,5,2,11,0.00
2012-11-9,72.0,52.2,33.0,55.0,44.7,32.0,98,80,45,0.00,40.00,6,2,11,0.00
2012-11-10,75.0,60.3,43.0,61.0,51.4,42.0,99,76,47,0.00,40.00,9,3,17,0.00
2012-11-11,78.0,71.1,66.0,65.0,61.4,58.0,85,72,52,0.00,40.00,12,8,22,0.00
2012-11-12,73.0,62.5,49.0,67.0,57.9,40.0,95,85,70,0.00,40.00,9,6,23,0.07
2012-11-13,61.0,48.7,40.0,40.0,32.5,26.0,83,57,30,0.00,40.00,9,6,22,0.01
2012-11-14,67.0,48.2,39.0,41.0,34.6,-99.9,91,65,33,0.00,40.00,6,4,13,0.00
2012-11-17,67.0,55.4,36.0,46.0,41.3,35.0,98,64,39,0.00,40.00,7,4,14,0.00
2012-11-18,71.0,57.1,35.0,47.0,41.7,34.0,98,61,37,0.00,40.00,6,3,13,0.00
2012-11-19,75.0,58.9,39.0,57.0,50.0,38.0,98,76,47,0.00,40.00,5,2,10,0.00
2012-11-20,71.0,59.0,40.0,51.0,45.8,39.0,99,67,37,0.00,40.00,5,2,12,0.00
2012-11-21,77.0,62.7,39.0,54.0,47.9,38.0,98,64,35,0.00,40.00,6,3,13,0.00
2012-11-22,77.0,62.9,39.0,54.0,48.2,38.0,98,65,38,0.00,40.00,6,2,12,0.00
2012-11-23,76.0,63.8,42.0,56.0,51.6,42.0,99,69,40,0.00,40.00,6,4,15,0.00
2012-11-24,61.0,52.8,31.0,53.0,37.0,29.0,96,59,30,0.00,40.00,8,5,17,0.00
2012-11-25,65.0,51.2,27.0,46.0,35.5,26.0,97,62,31,0.00,40.00,5,2,11,0.00
2012-11-26,67.0,52.3,37.0,62.0,49.9,36.0,98,93,79,0.00,40.00,5,2,10,0.01
2012-11-27,66.0,61.5,52.0,65.0,59.5,49.0,99,94,83,0.00,40.00,7,3,26,0.86
2012-11-28,64.0,51.6,34.0,49.0,41.7,33.0,97,74,34,0.00,40.00,7,5,15,0.01
2012-11-29,67.0,53.2,31.0,49.0,44.4,31.0,98,75,46,0.00,40.00,7,3,12,0.00
2012-11-30,76.0,58.6,44.0,58.0,51.5,43.0,99,81,49,0.00,40.00,6,2,11,0.00
2012-12-1,75.0,63.8,47.0,63.0,58.4,47.0,99,84,59,0.00,40.00,8,3,16,0.00
2012-12-2,78.0,64.3,50.0,62.0,57.3,49.0,99,81,54,0.00,40.00,6,2,11,0.00
2012-12-3,77.0,67.7,49.0,66.0,62.8,49.0,99,86,66,0.00,40.00,9,4,20,0.00
2012-12-4,76.0,68.5,64.0,69.0,65.3,64.0,99,90,72,0.00,40.00,7,4,16,0.01
2012-12-5,74.0,66.0,61.0,65.0,62.9,60.0,99,90,68,0.00,40.00,5,2,12,0.03
2012-12-6,76.0,63.4,52.0,66.0,55.6,-99.9,99,83,55,0.00,40.00,9,3,16,0.01
2012-12-7,76.0,66.3,52.0,66.0,63.0,52.0,99,90,68,0.00,40.00,6,3,12,0.00
2012-12-8,75.0,68.2,66.0,67.0,65.7,65.0,98,93,72,0.00,40.00,6,3,10,0.00
2012-12-9,75.0,67.9,50.0,68.0,64.3,50.0,99,89,73,0.00,40.00,7,4,13,0.00
2012-12-10,69.0,61.1,50.0,68.0,59.2,45.0,97,93,83,0.00,40.00,10,6,21,0.05
2012-12-11,50.0,44.7,42.0,45.0,38.3,35.0,83,78,69,0.00,40.00,7,6,16,0.01
2012-12-12,60.0,46.3,32.0,36.0,31.2,19.0,90,61,21,0.00,40.00,8,5,16,0.00
2012-12-13,66.0,47.2,30.0,46.0,36.0,28.0,97,69,33,0.00,40.00,6,3,12,0.00
2012-12-14,60.0,51.1,33.0,49.0,45.0,32.0,98,82,55,0.00,40.00,7,4,12,0.00
2012-12-15,72.0,60.1,48.0,64.0,56.1,47.0,97,87,65,0.00,40.00,6,3,13,0.00
2012-12-16,72.0,66.3,61.0,69.0,64.6,60.0,98,94,88,0.00,40.00,6,3,22,0.05
2012-12-17,69.0,63.6,57.0,68.0,62.0,56.0,99,95,90,0.00,40.00,6,3,13,0.86
2012-12-18,69.0,54.2,40.0,58.0,47.3,39.0,99,81,46,0.00,40.00,5,2,11,0.01
2012-12-19,74.0,57.3,37.0,65.0,51.2,36.0,98,83,52,0.00,40.00,8,4,115,0.00
2012-12-20,73.0,62.6,45.0,70.0,49.6,25.0,98,67,29,0.00,40.00,11,8,33,0.57
2012-12-21,58.0,44.1,30.0,29.0,21.8,11.0,89,46,18,0.00,40.00,11,5,21,0.02
2012-12-22,63.0,39.9,25.0,38.0,28.5,21.0,97,72,20,0.00,40.00,5,1,10,0.00
2012-12-23,65.0,50.3,32.0,59.0,45.4,31.0,98,85,60,0.00,40.00,9,3,16,0.00
2012-12-24,75.0,66.9,61.0,65.0,62.6,59.0,99,86,69,0.00,40.00,8,5,18,0.03
2012-12-25,75.0,65.2,53.0,66.0,62.3,51.0,99,90,73,0.00,40.00,11,5,29,0.79
2012-12-26,57.0,46.1,39.0,52.0,34.9,30.0,82,65,49,0.00,40.00,12,8,26,0.77
2012-12-27,52.0,40.0,35.0,38.0,33.0,30.0,98,77,49,0.00,40.00,6,3,13,0.00
2012-12-28,66.0,55.3,37.0,65.0,52.0,36.0,98,89,72,0.00,40.00,9,5,22,0.46
2012-12-29,62.0,46.4,36.0,59.0,36.4,28.0,90,69,47,0.00,40.00,11,8,26,0.46
2012-12-30,55.0,37.5,27.0,34.0,27.0,23.0,96,70,29,0.00,40.00,6,3,12,0.00
2012-12-31,62.0,47.9,30.0,54.0,41.9,29.0,97,81,62,0.00,40.00,5,3,11,0.00
2013-1-1,77.0,65.0,56.0,67.0,61.4,54.0,98,89,67,0.00,40.00,9,5,19,0.04